sensor_id;sensor_type;location;lat;lon;timestamp;P1;durP1;ratioP1;P2;durP2;ratioP2
58643;SDS011;44411;49.994;8.660;2023-05-20T00:00:52;5.13;;;2.73;;
58643;SDS011;44411;49.994;8.660;2023-05-20T00:03:18;4.20;;;2.20;;
58643;SDS011;44411;49.994;8.660;2023-05-20T00:05:44;9.73;;;2.67;;
58643;SDS011;44411;49.994;8.660;2023-05-20T00:08:09;5.03;;;2.27;;
58643;SDS011;44411;49.994;8.660;2023-05-20T00:10:35;6.13;;;2.67;;
58643;SDS011;44411;49.994;8.660;2023-05-20T00:13:00;4.53;;;2.22;;
58643;SDS011;44411;49.994;8.660;2023-05-20T00:15:25;5.78;;;2.38;;
58643;SDS011;44411;49.994;8.660;2023-05-20T00:17:51;4.05;;;2.10;;
58643;SDS011;44411;49.994;8.660;2023-05-20T00:20:16;6.03;;;2.47;;
58643;SDS011;44411;49.994;8.660;2023-05-20T00:22:41;3.50;;;2.20;;
58643;SDS011;44411;49.994;8.660;2023-05-20T00:25:06;4.63;;;2.23;;
58643;SDS011;44411;49.994;8.660;2023-05-20T00:27:32;5.50;;;2.88;;
58643;SDS011;44411;49.994;8.660;2023-05-20T00:29:57;3.43;;;2.13;;
58643;SDS011;44411;49.994;8.660;2023-05-20T00:32:23;5.60;;;2.38;;
58643;SDS011;44411;49.994;8.660;2023-05-20T00:34:55;4.25;;;2.38;;
58643;SDS011;44411;49.994;8.660;2023-05-20T00:37:21;8.02;;;2.53;;
58643;SDS011;44411;49.994;8.660;2023-05-20T00:39:46;5.23;;;2.53;;
58643;SDS011;44411;49.994;8.660;2023-05-20T00:42:18;4.17;;;2.53;;
58643;SDS011;44411;49.994;8.660;2023-05-20T00:44:43;3.67;;;2.10;;
58643;SDS011;44411;49.994;8.660;2023-05-20T00:47:08;3.92;;;2.15;;
58643;SDS011;44411;49.994;8.660;2023-05-20T00:49:34;5.35;;;2.70;;
58643;SDS011;44411;49.994;8.660;2023-05-20T00:51:59;5.50;;;2.90;;
58643;SDS011;44411;49.994;8.660;2023-05-20T00:54:24;5.40;;;2.63;;
58643;SDS011;44411;49.994;8.660;2023-05-20T00:56:50;6.07;;;2.97;;
58643;SDS011;44411;49.994;8.660;2023-05-20T00:59:15;3.85;;;2.42;;
58643;SDS011;44411;49.994;8.660;2023-05-20T01:01:40;6.37;;;3.80;;
58643;SDS011;44411;49.994;8.660;2023-05-20T01:04:06;5.80;;;2.47;;
58643;SDS011;44411;49.994;8.660;2023-05-20T01:06:31;5.17;;;2.70;;
58643;SDS011;44411;49.994;8.660;2023-05-20T01:08:57;4.60;;;2.42;;
58643;SDS011;44411;49.994;8.660;2023-05-20T01:11:27;5.33;;;2.87;;
58643;SDS011;44411;49.994;8.660;2023-05-20T01:13:54;4.80;;;2.65;;
58643;SDS011;44411;49.994;8.660;2023-05-20T01:16:22;5.38;;;3.08;;
58643;SDS011;44411;49.994;8.660;2023-05-20T01:18:48;4.07;;;2.53;;
58643;SDS011;44411;49.994;8.660;2023-05-20T01:21:14;4.85;;;2.58;;
58643;SDS011;44411;49.994;8.660;2023-05-20T01:23:40;4.75;;;2.70;;
58643;SDS011;44411;49.994;8.660;2023-05-20T01:26:05;5.22;;;2.60;;
58643;SDS011;44411;49.994;8.660;2023-05-20T01:28:31;6.70;;;2.80;;
58643;SDS011;44411;49.994;8.660;2023-05-20T06:01:07;8.40;;;4.70;;
58643;SDS011;44411;49.994;8.660;2023-05-20T06:03:32;8.07;;;4.47;;
58643;SDS011;44411;49.994;8.660;2023-05-20T06:05:57;6.20;;;4.30;;
58643;SDS011;44411;49.994;8.660;2023-05-20T06:08:22;7.00;;;4.70;;
58643;SDS011;44411;49.994;8.660;2023-05-20T06:10:48;6.87;;;4.73;;
58643;SDS011;44411;49.994;8.660;2023-05-20T06:13:13;6.95;;;4.32;;
58643;SDS011;44411;49.994;8.660;2023-05-20T06:15:39;9.82;;;4.80;;
58643;SDS011;44411;49.994;8.660;2023-05-20T06:18:05;7.50;;;4.43;;
58643;SDS011;44411;49.994;8.660;2023-05-20T06:20:30;6.77;;;4.40;;
58643;SDS011;44411;49.994;8.660;2023-05-20T06:22:57;6.70;;;4.70;;
58643;SDS011;44411;49.994;8.660;2023-05-20T06:25:23;6.78;;;4.60;;
58643;SDS011;44411;49.994;8.660;2023-05-20T06:27:48;6.13;;;4.50;;
58643;SDS011;44411;49.994;8.660;2023-05-20T06:30:14;6.82;;;4.40;;
58643;SDS011;44411;49.994;8.660;2023-05-20T06:32:39;7.80;;;5.13;;
58643;SDS011;44411;49.994;8.660;2023-05-20T06:35:05;7.80;;;4.93;;
58643;SDS011;44411;49.994;8.660;2023-05-20T06:37:30;6.95;;;5.05;;
58643;SDS011;44411;49.994;8.660;2023-05-20T06:39:55;8.40;;;5.40;;
58643;SDS011;44411;49.994;8.660;2023-05-20T06:42:21;8.15;;;5.03;;
58643;SDS011;44411;49.994;8.660;2023-05-20T06:44:46;6.85;;;4.22;;
58643;SDS011;44411;49.994;8.660;2023-05-20T06:47:15;6.70;;;4.18;;
58643;SDS011;44411;49.994;8.660;2023-05-20T06:49:43;8.20;;;4.95;;
58643;SDS011;44411;49.994;8.660;2023-05-20T06:52:08;7.82;;;4.60;;
58643;SDS011;44411;49.994;8.660;2023-05-20T06:54:34;7.43;;;5.00;;
58643;SDS011;44411;49.994;8.660;2023-05-20T06:57:04;6.43;;;3.97;;
58643;SDS011;44411;49.994;8.660;2023-05-20T06:59:29;8.50;;;5.05;;
58643;SDS011;44411;49.994;8.660;2023-05-20T07:01:55;7.88;;;4.88;;
58643;SDS011;44411;49.994;8.660;2023-05-20T07:04:20;6.93;;;4.93;;
58643;SDS011;44411;49.994;8.660;2023-05-20T07:06:45;8.70;;;4.93;;
58643;SDS011;44411;49.994;8.660;2023-05-20T07:09:10;8.20;;;5.27;;
58643;SDS011;44411;49.994;8.660;2023-05-20T07:11:35;8.60;;;4.80;;
58643;SDS011;44411;49.994;8.660;2023-05-20T07:14:01;6.90;;;5.20;;
58643;SDS011;44411;49.994;8.660;2023-05-20T07:16:26;7.10;;;4.78;;
58643;SDS011;44411;49.994;8.660;2023-05-20T07:18:51;8.53;;;4.63;;
58643;SDS011;44411;49.994;8.660;2023-05-20T07:21:16;10.20;;;5.00;;
58643;SDS011;44411;49.994;8.660;2023-05-20T07:23:41;8.88;;;5.82;;
58643;SDS011;44411;49.994;8.660;2023-05-20T07:26:07;10.03;;;5.73;;
58643;SDS011;44411;49.994;8.660;2023-05-20T07:28:32;8.93;;;5.90;;
58643;SDS011;44411;49.994;8.660;2023-05-20T07:30:57;7.20;;;5.40;;
58643;SDS011;44411;49.994;8.660;2023-05-20T07:33:24;6.38;;;5.28;;
58643;SDS011;44411;49.994;8.660;2023-05-20T07:35:49;6.65;;;5.13;;
58643;SDS011;44411;49.994;8.660;2023-05-20T07:38:14;9.07;;;6.17;;
58643;SDS011;44411;49.994;8.660;2023-05-20T07:40:40;7.95;;;5.40;;
58643;SDS011;44411;49.994;8.660;2023-05-20T07:43:06;10.85;;;6.05;;
58643;SDS011;44411;49.994;8.660;2023-05-20T07:45:33;7.63;;;6.13;;
58643;SDS011;44411;49.994;8.660;2023-05-20T07:47:59;7.18;;;4.95;;
58643;SDS011;44411;49.994;8.660;2023-05-20T07:50:24;16.00;;;5.68;;
58643;SDS011;44411;49.994;8.660;2023-05-20T07:52:50;7.65;;;5.50;;
58643;SDS011;44411;49.994;8.660;2023-05-20T07:55:15;7.83;;;5.50;;
58643;SDS011;44411;49.994;8.660;2023-05-20T07:57:40;9.27;;;5.73;;
58643;SDS011;44411;49.994;8.660;2023-05-20T08:00:05;6.90;;;5.43;;
58643;SDS011;44411;49.994;8.660;2023-05-20T08:02:32;8.38;;;5.88;;
58643;SDS011;44411;49.994;8.660;2023-05-20T08:04:57;8.37;;;4.63;;
58643;SDS011;44411;49.994;8.660;2023-05-20T08:07:22;9.73;;;5.50;;
58643;SDS011;44411;49.994;8.660;2023-05-20T08:09:47;10.10;;;6.05;;
58643;SDS011;44411;49.994;8.660;2023-05-20T08:12:13;7.97;;;5.70;;
58643;SDS011;44411;49.994;8.660;2023-05-20T08:14:38;9.07;;;6.43;;
58643;SDS011;44411;49.994;8.660;2023-05-20T08:17:03;8.23;;;5.50;;
58643;SDS011;44411;49.994;8.660;2023-05-20T08:19:28;12.03;;;5.93;;
58643;SDS011;44411;49.994;8.660;2023-05-20T08:21:53;10.33;;;5.97;;
58643;SDS011;44411;49.994;8.660;2023-05-20T08:24:18;8.50;;;5.53;;
58643;SDS011;44411;49.994;8.660;2023-05-20T08:26:44;7.57;;;5.00;;
58643;SDS011;44411;49.994;8.660;2023-05-20T08:29:09;7.50;;;5.90;;
58643;SDS011;44411;49.994;8.660;2023-05-20T08:31:34;12.63;;;7.17;;
58643;SDS011;44411;49.994;8.660;2023-05-20T08:34:00;11.23;;;5.97;;
58643;SDS011;44411;49.994;8.660;2023-05-20T08:36:25;8.67;;;6.47;;
58643;SDS011;44411;49.994;8.660;2023-05-20T08:38:50;7.33;;;5.50;;
58643;SDS011;44411;49.994;8.660;2023-05-20T08:41:15;8.13;;;6.07;;
58643;SDS011;44411;49.994;8.660;2023-05-20T08:43:40;8.93;;;6.07;;
58643;SDS011;44411;49.994;8.660;2023-05-20T08:46:06;8.82;;;6.13;;
58643;SDS011;44411;49.994;8.660;2023-05-20T08:48:31;7.97;;;6.13;;
58643;SDS011;44411;49.994;8.660;2023-05-20T08:50:57;10.32;;;5.90;;
58643;SDS011;44411;49.994;8.660;2023-05-20T08:53:24;11.93;;;7.18;;
58643;SDS011;44411;49.994;8.660;2023-05-20T08:58:15;9.23;;;6.67;;
58643;SDS011;44411;49.994;8.660;2023-05-20T09:00:41;9.73;;;6.93;;
58643;SDS011;44411;49.994;8.660;2023-05-20T09:03:06;11.07;;;6.43;;
58643;SDS011;44411;49.994;8.660;2023-05-20T09:05:32;6.97;;;5.60;;
58643;SDS011;44411;49.994;8.660;2023-05-20T09:08:07;9.25;;;6.60;;
58643;SDS011;44411;49.994;8.660;2023-05-20T09:10:33;8.93;;;6.03;;
58643;SDS011;44411;49.994;8.660;2023-05-20T09:13:03;9.40;;;6.38;;
58643;SDS011;44411;49.994;8.660;2023-05-20T09:15:29;7.88;;;5.80;;
58643;SDS011;44411;49.994;8.660;2023-05-20T09:17:54;7.70;;;5.53;;
58643;SDS011;44411;49.994;8.660;2023-05-20T09:20:20;8.40;;;6.22;;
58643;SDS011;44411;49.994;8.660;2023-05-20T09:22:46;8.60;;;5.78;;
58643;SDS011;44411;49.994;8.660;2023-05-20T09:25:17;8.07;;;5.72;;
58643;SDS011;44411;49.994;8.660;2023-05-20T09:27:42;7.88;;;5.63;;
58643;SDS011;44411;49.994;8.660;2023-05-20T09:30:07;6.73;;;5.53;;
58643;SDS011;44411;49.994;8.660;2023-05-20T09:32:33;9.00;;;7.05;;
58643;SDS011;44411;49.994;8.660;2023-05-20T09:34:58;8.50;;;6.23;;
58643;SDS011;44411;49.994;8.660;2023-05-20T09:37:25;7.32;;;5.45;;
58643;SDS011;44411;49.994;8.660;2023-05-20T09:39:55;7.38;;;5.68;;
58643;SDS011;44411;49.994;8.660;2023-05-20T09:42:24;7.68;;;5.82;;
58643;SDS011;44411;49.994;8.660;2023-05-20T09:44:52;10.30;;;6.18;;
58643;SDS011;44411;49.994;8.660;2023-05-20T09:47:22;8.48;;;5.80;;
58643;SDS011;44411;49.994;8.660;2023-05-20T09:49:48;9.60;;;6.22;;
58643;SDS011;44411;49.994;8.660;2023-05-20T09:52:14;10.35;;;6.25;;
58643;SDS011;44411;49.994;8.660;2023-05-20T09:54:39;8.30;;;6.22;;
58643;SDS011;44411;49.994;8.660;2023-05-20T09:57:06;8.10;;;6.60;;
58643;SDS011;44411;49.994;8.660;2023-05-20T09:59:31;9.55;;;6.85;;
58643;SDS011;44411;49.994;8.660;2023-05-20T10:01:56;9.38;;;5.85;;
58643;SDS011;44411;49.994;8.660;2023-05-20T10:04:21;9.00;;;6.80;;
58643;SDS011;44411;49.994;8.660;2023-05-20T10:12:06;7.67;;;6.30;;
58643;SDS011;44411;49.994;8.660;2023-05-20T10:17:09;8.77;;;6.10;;
58643;SDS011;44411;49.994;8.660;2023-05-20T10:19:34;8.30;;;5.75;;
58643;SDS011;44411;49.994;8.660;2023-05-20T10:22:00;9.02;;;6.55;;
58643;SDS011;44411;49.994;8.660;2023-05-20T10:24:30;7.68;;;5.82;;
58643;SDS011;44411;49.994;8.660;2023-05-20T10:26:56;7.25;;;5.72;;
58643;SDS011;44411;49.994;8.660;2023-05-20T10:29:22;7.50;;;6.43;;
58643;SDS011;44411;49.994;8.660;2023-05-20T10:31:48;8.77;;;6.60;;
58643;SDS011;44411;49.994;8.660;2023-05-20T10:34:14;11.20;;;7.20;;
58643;SDS011;44411;49.994;8.660;2023-05-20T10:36:43;8.27;;;5.68;;
58643;SDS011;44411;49.994;8.660;2023-05-20T10:39:13;7.30;;;6.00;;
58643;SDS011;44411;49.994;8.660;2023-05-20T10:41:39;9.95;;;6.50;;
58643;SDS011;44411;49.994;8.660;2023-05-20T10:44:05;8.77;;;6.33;;
58643;SDS011;44411;49.994;8.660;2023-05-20T10:46:31;8.68;;;6.35;;
58643;SDS011;44411;49.994;8.660;2023-05-20T10:48:56;8.85;;;5.95;;
58643;SDS011;44411;49.994;8.660;2023-05-20T10:51:22;8.18;;;5.70;;
58643;SDS011;44411;49.994;8.660;2023-05-20T10:53:47;7.45;;;6.18;;
58643;SDS011;44411;49.994;8.660;2023-05-20T10:56:19;9.20;;;7.03;;
58643;SDS011;44411;49.994;8.660;2023-05-20T10:58:48;11.18;;;6.78;;
58643;SDS011;44411;49.994;8.660;2023-05-20T11:01:13;8.27;;;6.75;;
58643;SDS011;44411;49.994;8.660;2023-05-20T11:03:45;9.98;;;6.35;;
58643;SDS011;44411;49.994;8.660;2023-05-20T11:06:15;9.57;;;6.30;;
58643;SDS011;44411;49.994;8.660;2023-05-20T11:08:40;11.23;;;6.73;;
58643;SDS011;44411;49.994;8.660;2023-05-20T11:11:06;8.88;;;6.68;;
58643;SDS011;44411;49.994;8.660;2023-05-20T11:13:31;9.57;;;6.93;;
58643;SDS011;44411;49.994;8.660;2023-05-20T11:15:57;8.93;;;7.00;;
58643;SDS011;44411;49.994;8.660;2023-05-20T11:18:23;9.27;;;6.95;;
58643;SDS011;44411;49.994;8.660;2023-05-20T11:20:48;8.57;;;6.37;;
58643;SDS011;44411;49.994;8.660;2023-05-20T11:23:14;8.47;;;6.00;;
58643;SDS011;44411;49.994;8.660;2023-05-20T11:25:39;9.35;;;6.32;;
58643;SDS011;44411;49.994;8.660;2023-05-20T11:28:08;7.77;;;5.60;;
58643;SDS011;44411;49.994;8.660;2023-05-20T11:30:33;8.23;;;6.47;;
58643;SDS011;44411;49.994;8.660;2023-05-20T11:32:59;9.73;;;6.72;;
58643;SDS011;44411;49.994;8.660;2023-05-20T11:35:25;8.80;;;6.03;;
58643;SDS011;44411;49.994;8.660;2023-05-20T11:37:53;9.05;;;6.60;;
58643;SDS011;44411;49.994;8.660;2023-05-20T11:40:22;8.48;;;6.30;;
58643;SDS011;44411;49.994;8.660;2023-05-20T11:42:47;8.20;;;6.03;;
58643;SDS011;44411;49.994;8.660;2023-05-20T11:45:12;9.00;;;6.60;;
58643;SDS011;44411;49.994;8.660;2023-05-20T11:47:38;8.50;;;6.60;;
58643;SDS011;44411;49.994;8.660;2023-05-20T11:50:03;8.30;;;6.05;;
58643;SDS011;44411;49.994;8.660;2023-05-20T11:52:29;8.23;;;6.85;;
58643;SDS011;44411;49.994;8.660;2023-05-20T11:54:57;9.85;;;6.80;;
58643;SDS011;44411;49.994;8.660;2023-05-20T11:57:22;8.43;;;6.17;;
58643;SDS011;44411;49.994;8.660;2023-05-20T11:59:47;9.40;;;6.27;;
58643;SDS011;44411;49.994;8.660;2023-05-20T12:02:13;8.60;;;6.15;;
58643;SDS011;44411;49.994;8.660;2023-05-20T12:04:38;8.00;;;6.17;;
58643;SDS011;44411;49.994;8.660;2023-05-20T12:07:06;8.43;;;6.07;;
58643;SDS011;44411;49.994;8.660;2023-05-20T12:09:33;8.35;;;6.13;;
58643;SDS011;44411;49.994;8.660;2023-05-20T12:11:58;7.53;;;5.22;;
58643;SDS011;44411;49.994;8.660;2023-05-20T12:14:24;8.20;;;6.10;;
58643;SDS011;44411;49.994;8.660;2023-05-20T12:16:49;7.78;;;6.10;;
58643;SDS011;44411;49.994;8.660;2023-05-20T12:19:14;7.85;;;6.45;;
58643;SDS011;44411;49.994;8.660;2023-05-20T12:21:40;11.25;;;7.03;;
58643;SDS011;44411;49.994;8.660;2023-05-20T12:24:05;8.88;;;7.47;;
58643;SDS011;44411;49.994;8.660;2023-05-20T12:26:32;8.30;;;6.18;;
58643;SDS011;44411;49.994;8.660;2023-05-20T12:28:59;8.57;;;6.50;;
58643;SDS011;44411;49.994;8.660;2023-05-20T12:31:24;9.50;;;6.37;;
58643;SDS011;44411;49.994;8.660;2023-05-20T12:33:50;8.93;;;6.70;;
58643;SDS011;44411;49.994;8.660;2023-05-20T12:36:15;8.60;;;6.03;;
58643;SDS011;44411;49.994;8.660;2023-05-20T12:38:40;8.90;;;6.57;;
58643;SDS011;44411;49.994;8.660;2023-05-20T12:41:05;11.10;;;7.17;;
58643;SDS011;44411;49.994;8.660;2023-05-20T12:43:30;8.38;;;6.25;;
58643;SDS011;44411;49.994;8.660;2023-05-20T12:45:56;8.50;;;6.13;;
58643;SDS011;44411;49.994;8.660;2023-05-20T12:48:21;8.57;;;6.27;;
58643;SDS011;44411;49.994;8.660;2023-05-20T12:50:46;8.27;;;6.27;;
58643;SDS011;44411;49.994;8.660;2023-05-20T12:53:11;7.93;;;6.40;;
58643;SDS011;44411;49.994;8.660;2023-05-20T12:55:36;7.27;;;6.13;;
58643;SDS011;44411;49.994;8.660;2023-05-20T12:58:02;8.27;;;6.13;;
58643;SDS011;44411;49.994;8.660;2023-05-20T13:00:28;10.47;;;7.40;;
58643;SDS011;44411;49.994;8.660;2023-05-20T13:02:53;8.65;;;6.63;;
58643;SDS011;44411;49.994;8.660;2023-05-20T13:05:18;9.82;;;7.30;;
58643;SDS011;44411;49.994;8.660;2023-05-20T13:07:43;7.83;;;6.43;;
58643;SDS011;44411;49.994;8.660;2023-05-20T13:10:09;9.00;;;6.27;;
58643;SDS011;44411;49.994;8.660;2023-05-20T13:12:35;9.13;;;6.82;;
58643;SDS011;44411;49.994;8.660;2023-05-20T13:15:00;7.78;;;6.07;;
58643;SDS011;44411;49.994;8.660;2023-05-20T13:17:26;8.80;;;7.10;;
58643;SDS011;44411;49.994;8.660;2023-05-20T13:19:51;7.45;;;6.13;;
58643;SDS011;44411;49.994;8.660;2023-05-20T13:22:16;9.57;;;6.73;;
58643;SDS011;44411;49.994;8.660;2023-05-20T13:24:41;9.73;;;6.63;;
58643;SDS011;44411;49.994;8.660;2023-05-20T13:27:07;11.20;;;7.50;;
58643;SDS011;44411;49.994;8.660;2023-05-20T13:29:32;8.75;;;7.20;;
58643;SDS011;44411;49.994;8.660;2023-05-20T13:31:57;9.13;;;6.67;;
58643;SDS011;44411;49.994;8.660;2023-05-20T13:34:22;10.27;;;7.20;;
58643;SDS011;44411;49.994;8.660;2023-05-20T13:36:48;9.95;;;6.68;;
58643;SDS011;44411;49.994;8.660;2023-05-20T13:39:14;8.67;;;6.73;;
58643;SDS011;44411;49.994;8.660;2023-05-20T13:41:39;8.93;;;6.55;;
58643;SDS011;44411;49.994;8.660;2023-05-20T13:44:05;8.95;;;6.63;;
58643;SDS011;44411;49.994;8.660;2023-05-20T13:46:30;9.50;;;7.38;;
58643;SDS011;44411;49.994;8.660;2023-05-20T13:48:55;9.63;;;7.30;;
58643;SDS011;44411;49.994;8.660;2023-05-20T13:51:21;10.07;;;6.57;;
58643;SDS011;44411;49.994;8.660;2023-05-20T13:53:46;9.70;;;7.70;;
58643;SDS011;44411;49.994;8.660;2023-05-20T13:56:11;12.10;;;8.20;;
58643;SDS011;44411;49.994;8.660;2023-05-20T13:58:36;9.30;;;6.47;;
58643;SDS011;44411;49.994;8.660;2023-05-20T14:01:02;10.55;;;7.25;;
58643;SDS011;44411;49.994;8.660;2023-05-20T14:03:28;10.60;;;7.13;;
58643;SDS011;44411;49.994;8.660;2023-05-20T14:05:54;9.30;;;6.63;;
58643;SDS011;44411;49.994;8.660;2023-05-20T14:08:19;8.53;;;7.17;;
58643;SDS011;44411;49.994;8.660;2023-05-20T14:10:44;10.98;;;7.85;;
58643;SDS011;44411;49.994;8.660;2023-05-20T14:13:10;9.60;;;7.75;;
58643;SDS011;44411;49.994;8.660;2023-05-20T14:15:35;10.23;;;8.00;;
58643;SDS011;44411;49.994;8.660;2023-05-20T14:18:00;12.05;;;8.20;;
58643;SDS011;44411;49.994;8.660;2023-05-20T14:20:26;11.73;;;8.50;;
58643;SDS011;44411;49.994;8.660;2023-05-20T14:22:51;9.13;;;7.30;;
58643;SDS011;44411;49.994;8.660;2023-05-20T14:25:17;10.60;;;8.13;;
58643;SDS011;44411;49.994;8.660;2023-05-20T14:27:42;10.95;;;7.78;;
58643;SDS011;44411;49.994;8.660;2023-05-20T14:30:07;10.10;;;7.17;;
58643;SDS011;44411;49.994;8.660;2023-05-20T14:32:33;10.57;;;7.85;;
58643;SDS011;44411;49.994;8.660;2023-05-20T14:34:58;11.25;;;8.48;;
58643;SDS011;44411;49.994;8.660;2023-05-20T14:37:24;10.07;;;7.60;;
58643;SDS011;44411;49.994;8.660;2023-05-20T14:39:51;11.05;;;7.38;;
58643;SDS011;44411;49.994;8.660;2023-05-20T14:42:16;9.63;;;7.57;;
58643;SDS011;44411;49.994;8.660;2023-05-20T14:44:41;9.73;;;7.50;;
58643;SDS011;44411;49.994;8.660;2023-05-20T14:47:06;10.23;;;8.03;;
58643;SDS011;44411;49.994;8.660;2023-05-20T14:49:31;9.03;;;7.30;;
58643;SDS011;44411;49.994;8.660;2023-05-20T14:51:57;11.13;;;7.60;;
58643;SDS011;44411;49.994;8.660;2023-05-20T14:54:22;9.52;;;7.05;;
58643;SDS011;44411;49.994;8.660;2023-05-20T14:56:49;11.05;;;7.45;;
58643;SDS011;44411;49.994;8.660;2023-05-20T14:59:15;8.48;;;7.00;;
58643;SDS011;44411;49.994;8.660;2023-05-20T15:01:40;10.00;;;7.57;;
58643;SDS011;44411;49.994;8.660;2023-05-20T15:04:05;9.63;;;7.40;;
58643;SDS011;44411;49.994;8.660;2023-05-20T15:06:30;10.87;;;7.73;;
58643;SDS011;44411;49.994;8.660;2023-05-20T15:08:57;10.27;;;7.68;;
58643;SDS011;44411;49.994;8.660;2023-05-20T15:11:22;10.07;;;8.15;;
58643;SDS011;44411;49.994;8.660;2023-05-20T15:13:48;9.03;;;7.23;;
58643;SDS011;44411;49.994;8.660;2023-05-20T15:16:15;11.10;;;7.03;;
58643;SDS011;44411;49.994;8.660;2023-05-20T15:18:43;10.02;;;7.65;;
58643;SDS011;44411;49.994;8.660;2023-05-20T15:21:08;9.67;;;7.77;;
58643;SDS011;44411;49.994;8.660;2023-05-20T15:23:33;8.43;;;7.05;;
58643;SDS011;44411;49.994;8.660;2023-05-20T15:25:58;10.23;;;7.47;;
58643;SDS011;44411;49.994;8.660;2023-05-20T15:28:24;11.80;;;6.82;;
58643;SDS011;44411;49.994;8.660;2023-05-20T15:30:51;10.88;;;7.93;;
58643;SDS011;44411;49.994;8.660;2023-05-20T15:33:16;9.68;;;7.63;;
58643;SDS011;44411;49.994;8.660;2023-05-20T15:35:42;10.93;;;7.60;;
58643;SDS011;44411;49.994;8.660;2023-05-20T15:38:07;10.17;;;7.63;;
58643;SDS011;44411;49.994;8.660;2023-05-20T15:40:32;8.77;;;7.43;;
58643;SDS011;44411;49.994;8.660;2023-05-20T15:42:57;9.50;;;7.60;;
58643;SDS011;44411;49.994;8.660;2023-05-20T15:45:24;9.38;;;7.57;;
58643;SDS011;44411;49.994;8.660;2023-05-20T15:47:49;10.98;;;7.65;;
58643;SDS011;44411;49.994;8.660;2023-05-20T15:50:15;9.55;;;7.40;;
58643;SDS011;44411;49.994;8.660;2023-05-20T15:52:40;8.48;;;6.55;;
58643;SDS011;44411;49.994;8.660;2023-05-20T15:55:06;9.47;;;7.77;;
58643;SDS011;44411;49.994;8.660;2023-05-20T15:57:31;9.23;;;7.47;;
58643;SDS011;44411;49.994;8.660;2023-05-20T15:59:56;9.70;;;8.07;;
58643;SDS011;44411;49.994;8.660;2023-05-20T16:02:22;10.70;;;8.50;;
58643;SDS011;44411;49.994;8.660;2023-05-20T16:04:48;9.65;;;7.47;;
58643;SDS011;44411;49.994;8.660;2023-05-20T16:07:13;10.88;;;7.78;;
58643;SDS011;44411;49.994;8.660;2023-05-20T16:09:39;10.23;;;7.53;;
58643;SDS011;44411;49.994;8.660;2023-05-20T16:12:04;10.32;;;7.50;;
58643;SDS011;44411;49.994;8.660;2023-05-20T16:14:30;9.90;;;7.25;;
58643;SDS011;44411;49.994;8.660;2023-05-20T16:16:55;11.47;;;8.17;;
58643;SDS011;44411;49.994;8.660;2023-05-20T16:19:20;11.07;;;8.07;;
58643;SDS011;44411;49.994;8.660;2023-05-20T16:21:45;10.43;;;7.80;;
58643;SDS011;44411;49.994;8.660;2023-05-20T16:24:10;10.20;;;7.30;;
58643;SDS011;44411;49.994;8.660;2023-05-20T16:26:36;10.40;;;8.18;;
58643;SDS011;44411;49.994;8.660;2023-05-20T16:29:01;10.32;;;7.65;;
58643;SDS011;44411;49.994;8.660;2023-05-20T16:31:27;12.10;;;8.75;;
58643;SDS011;44411;49.994;8.660;2023-05-20T16:33:52;10.47;;;8.80;;
58643;SDS011;44411;49.994;8.660;2023-05-20T16:36:17;12.55;;;8.57;;
58643;SDS011;44411;49.994;8.660;2023-05-20T16:38:43;9.95;;;7.72;;
58643;SDS011;44411;49.994;8.660;2023-05-20T16:41:08;11.17;;;8.27;;
58643;SDS011;44411;49.994;8.660;2023-05-20T16:43:33;12.77;;;9.23;;
58643;SDS011;44411;49.994;8.660;2023-05-20T16:45:58;10.13;;;8.20;;
58643;SDS011;44411;49.994;8.660;2023-05-20T16:48:23;10.50;;;8.47;;
58643;SDS011;44411;49.994;8.660;2023-05-20T16:50:49;10.70;;;8.10;;
58643;SDS011;44411;49.994;8.660;2023-05-20T16:53:14;9.97;;;8.37;;
58643;SDS011;44411;49.994;8.660;2023-05-20T16:55:39;12.47;;;8.30;;
58643;SDS011;44411;49.994;8.660;2023-05-20T16:58:05;10.93;;;8.20;;
58643;SDS011;44411;49.994;8.660;2023-05-20T17:00:30;11.10;;;8.30;;
58643;SDS011;44411;49.994;8.660;2023-05-20T17:02:55;11.97;;;8.60;;
58643;SDS011;44411;49.994;8.660;2023-05-20T17:05:21;14.03;;;9.43;;
58643;SDS011;44411;49.994;8.660;2023-05-20T17:07:46;13.23;;;8.77;;
58643;SDS011;44411;49.994;8.660;2023-05-20T17:10:13;10.80;;;7.82;;
58643;SDS011;44411;49.994;8.660;2023-05-20T17:12:38;11.00;;;8.57;;
58643;SDS011;44411;49.994;8.660;2023-05-20T17:15:04;11.43;;;8.73;;
58643;SDS011;44411;49.994;8.660;2023-05-20T17:17:30;11.45;;;8.13;;
58643;SDS011;44411;49.994;8.660;2023-05-20T17:19:55;10.75;;;8.18;;
58643;SDS011;44411;49.994;8.660;2023-05-20T17:22:20;9.40;;;7.73;;
58643;SDS011;44411;49.994;8.660;2023-05-20T17:24:45;11.83;;;8.53;;
58643;SDS011;44411;49.994;8.660;2023-05-20T17:27:10;11.07;;;8.20;;
58643;SDS011;44411;49.994;8.660;2023-05-20T17:29:36;11.97;;;9.00;;
58643;SDS011;44411;49.994;8.660;2023-05-20T17:32:01;12.20;;;9.07;;
58643;SDS011;44411;49.994;8.660;2023-05-20T17:34:26;10.87;;;8.57;;
58643;SDS011;44411;49.994;8.660;2023-05-20T17:36:51;10.77;;;8.20;;
58643;SDS011;44411;49.994;8.660;2023-05-20T17:39:17;11.17;;;8.63;;
58643;SDS011;44411;49.994;8.660;2023-05-20T17:41:42;11.80;;;8.97;;
58643;SDS011;44411;49.994;8.660;2023-05-20T17:44:08;11.90;;;8.90;;
58643;SDS011;44411;49.994;8.660;2023-05-20T17:46:33;10.53;;;8.67;;
58643;SDS011;44411;49.994;8.660;2023-05-20T17:48:58;12.45;;;8.50;;
58643;SDS011;44411;49.994;8.660;2023-05-20T17:51:23;12.30;;;9.20;;
58643;SDS011;44411;49.994;8.660;2023-05-20T17:53:49;12.18;;;8.65;;
58643;SDS011;44411;49.994;8.660;2023-05-20T17:56:14;12.00;;;9.20;;
58643;SDS011;44411;49.994;8.660;2023-05-20T17:58:40;12.43;;;9.55;;
58643;SDS011;44411;49.994;8.660;2023-05-20T18:01:05;10.40;;;8.43;;
58643;SDS011;44411;49.994;8.660;2023-05-20T18:03:33;12.18;;;9.02;;
58643;SDS011;44411;49.994;8.660;2023-05-20T18:05:58;12.17;;;8.33;;
58643;SDS011;44411;49.994;8.660;2023-05-20T18:08:23;13.23;;;9.50;;
58643;SDS011;44411;49.994;8.660;2023-05-20T18:10:49;11.75;;;8.80;;
58643;SDS011;44411;49.994;8.660;2023-05-20T18:13:14;14.43;;;10.02;;
58643;SDS011;44411;49.994;8.660;2023-05-20T18:15:40;12.37;;;8.70;;
58643;SDS011;44411;49.994;8.660;2023-05-20T18:18:05;13.75;;;10.20;;
58643;SDS011;44411;49.994;8.660;2023-05-20T18:20:30;14.13;;;9.98;;
58643;SDS011;44411;49.994;8.660;2023-05-20T18:22:55;13.30;;;9.63;;
58643;SDS011;44411;49.994;8.660;2023-05-20T18:25:22;11.48;;;9.18;;
58643;SDS011;44411;49.994;8.660;2023-05-20T18:27:48;14.88;;;9.95;;
58643;SDS011;44411;49.994;8.660;2023-05-20T18:30:13;12.47;;;9.83;;
58643;SDS011;44411;49.994;8.660;2023-05-20T18:32:38;14.07;;;10.17;;
58643;SDS011;44411;49.994;8.660;2023-05-20T18:35:04;12.65;;;9.77;;
58643;SDS011;44411;49.994;8.660;2023-05-20T18:37:29;13.07;;;9.80;;
58643;SDS011;44411;49.994;8.660;2023-05-20T18:39:54;12.00;;;9.07;;
58643;SDS011;44411;49.994;8.660;2023-05-20T18:42:22;15.27;;;10.82;;
58643;SDS011;44411;49.994;8.660;2023-05-20T18:44:47;14.13;;;10.70;;
58643;SDS011;44411;49.994;8.660;2023-05-20T18:47:12;15.63;;;11.33;;
58643;SDS011;44411;49.994;8.660;2023-05-20T18:49:37;14.53;;;10.07;;
58643;SDS011;44411;49.994;8.660;2023-05-20T18:52:03;14.33;;;10.57;;
58643;SDS011;44411;49.994;8.660;2023-05-20T18:54:28;15.05;;;11.05;;
58643;SDS011;44411;49.994;8.660;2023-05-20T18:56:53;14.18;;;10.07;;
58643;SDS011;44411;49.994;8.660;2023-05-20T18:59:18;14.33;;;10.87;;
58643;SDS011;44411;49.994;8.660;2023-05-20T19:01:44;15.18;;;10.50;;
58643;SDS011;44411;49.994;8.660;2023-05-20T19:04:09;14.57;;;10.43;;
58643;SDS011;44411;49.994;8.660;2023-05-20T19:06:35;14.32;;;10.07;;
58643;SDS011;44411;49.994;8.660;2023-05-20T19:09:01;16.60;;;10.60;;
58643;SDS011;44411;49.994;8.660;2023-05-20T19:11:27;14.50;;;10.40;;
58643;SDS011;44411;49.994;8.660;2023-05-20T19:13:53;16.55;;;11.10;;